Time;durP1;ratioP1;P1;durP2;ratioP2;P2;SDS_P1;SDS_P2;PMS_P1;PMS_P2;Temp;Humidity;BMP_temperature;BMP_pressure;BME280_temperature;BME280_humidity;BME280_pressure;Samples;Min_cycle;Max_cycle;Signal;HPM_P1;HPM_P2
2024/02/19 00:00:29;;;;;;;1.17;1.00;;;8.90;99.90;;;;;;5067435;28;20197;-88
2024/02/19 00:02:56;;;;;;;2.22;0.90;;;8.90;99.90;;;;;;5069954;28;20190;-87
2024/02/19 00:05:23;;;;;;;1.00;0.93;;;8.90;99.90;;;;;;5062437;28;20258;-92
2024/02/19 00:07:50;;;;;;;0.98;0.80;;;8.90;99.90;;;;;;5081818;28;20219;-89
2024/02/19 00:10:16;;;;;;;1.43;0.93;;;8.90;99.90;;;;;;5063368;28;20515;-88
2024/02/19 00:12:42;;;;;;;1.20;1.00;;;8.90;99.90;;;;;;5062119;28;20185;-88
2024/02/19 00:15:09;;;;;;;1.17;1.07;;;8.90;99.90;;;;;;5058132;28;20196;-85
2024/02/19 00:17:35;;;;;;;1.60;1.20;;;8.80;99.90;;;;;;5072659;28;20563;-87
2024/02/19 00:20:07;;;;;;;1.20;1.00;;;8.80;99.90;;;;;;5067938;28;20199;-89
2024/02/19 00:22:33;;;;;;;1.67;1.00;;;8.80;99.90;;;;;;5062293;28;20188;-88
2024/02/19 00:24:59;;;;;;;1.30;1.07;;;8.70;99.90;;;;;;5087741;28;20209;-89
2024/02/19 00:27:25;;;;;;;1.10;0.90;;;8.70;99.90;;;;;;5064084;28;20526;-87
2024/02/19 00:29:53;;;;;;;1.87;1.20;;;8.70;99.90;;;;;;5086253;28;20234;-87
2024/02/19 00:32:24;;;;;;;1.57;0.97;;;8.60;99.90;;;;;;5083224;28;20207;-87
2024/02/19 00:34:51;;;;;;;1.20;1.10;;;8.60;99.90;;;;;;5069223;28;20620;-87
2024/02/19 00:37:17;;;;;;;1.20;1.10;;;8.60;99.90;;;;;;5078541;28;20185;-86
2024/02/19 00:39:43;;;;;;;1.27;1.17;;;8.50;99.90;;;;;;5068471;28;20275;-86
2024/02/19 00:42:10;;;;;;;1.33;1.20;;;8.60;99.90;;;;;;5058555;28;20333;-86
2024/02/19 00:44:35;;;;;;;1.43;1.33;;;8.60;99.90;;;;;;5061806;28;20192;-87
2024/02/19 00:47:01;;;;;;;1.77;1.67;;;8.50;99.90;;;;;;5059935;28;20213;-87
2024/02/19 00:49:27;;;;;;;2.30;1.80;;;8.50;99.90;;;;;;5071551;28;20224;-86
2024/02/19 00:51:53;;;;;;;2.03;1.83;;;8.50;99.90;;;;;;5068884;28;20224;-86
2024/02/19 00:54:19;;;;;;;2.30;2.10;;;8.50;99.90;;;;;;5086293;28;20189;-88
2024/02/19 00:56:44;;;;;;;2.53;2.33;;;8.50;99.90;;;;;;5070086;28;20662;-89
2024/02/19 00:59:11;;;;;;;2.73;2.37;;;8.40;99.90;;;;;;5066187;28;20201;-88
2024/02/19 01:01:37;;;;;;;2.60;2.40;;;8.40;99.90;;;;;;5065438;28;20189;-87
2024/02/19 01:04:03;;;;;;;3.17;2.60;;;8.40;99.90;;;;;;5075435;28;20516;-88
2024/02/19 01:06:29;;;;;;;2.83;2.63;;;8.40;99.90;;;;;;5066942;28;20244;-88
2024/02/19 01:08:55;;;;;;;3.73;2.70;;;8.30;99.90;;;;;;5074258;28;20181;-87
2024/02/19 01:11:20;;;;;;;3.07;2.77;;;8.30;99.90;;;;;;5055737;28;20205;-88
2024/02/19 01:13:46;;;;;;;3.27;2.97;;;8.30;99.90;;;;;;5050831;28;20186;-87
2024/02/19 01:16:12;;;;;;;3.13;2.83;;;8.30;99.90;;;;;;5049694;28;20194;-88
2024/02/19 01:18:39;;;;;;;3.50;2.87;;;8.30;99.90;;;;;;5073904;28;20189;-88
2024/02/19 01:21:05;;;;;;;2.70;2.50;;;8.30;99.90;;;;;;5066489;28;20192;-88
2024/02/19 01:23:32;;;;;;;4.30;2.50;;;8.30;99.90;;;;;;5073216;28;20189;-87
2024/02/19 01:25:58;;;;;;;6.53;2.53;;;8.20;99.90;;;;;;5065262;28;20253;-86
2024/02/19 01:28:24;;;;;;;2.97;2.67;;;8.20;99.90;;;;;;5063329;28;20314;-87
2024/02/19 01:30:49;;;;;;;2.63;2.40;;;8.10;99.90;;;;;;5066552;28;20190;-87
2024/02/19 01:33:16;;;;;;;3.23;2.30;;;8.10;99.90;;;;;;5060862;28;20177;-87
2024/02/19 01:35:44;;;;;;;3.03;2.40;;;8.10;99.90;;;;;;5073818;28;20555;-87
2024/02/19 01:38:11;;;;;;;2.43;2.23;;;8.20;99.90;;;;;;5073735;28;20189;-87
2024/02/19 01:40:38;;;;;;;2.93;2.63;;;8.10;99.90;;;;;;5069401;28;20232;-86
2024/02/19 01:43:06;;;;;;;2.43;2.23;;;8.10;99.90;;;;;;5058867;28;20204;-86
2024/02/19 01:45:33;;;;;;;2.73;2.03;;;8.10;99.90;;;;;;5060140;28;20232;-86
2024/02/19 01:48:00;;;;;;;3.93;2.47;;;8.10;99.90;;;;;;5075131;28;20497;-86
2024/02/19 01:50:31;;;;;;;3.10;2.13;;;8.00;99.90;;;;;;5066784;28;20225;-86
2024/02/19 01:53:05;;;;;;;2.10;1.90;;;8.10;99.90;;;;;;5040995;28;20182;-86
2024/02/19 01:55:33;;;;;;;2.13;1.93;;;8.10;99.90;;;;;;5052235;28;20189;-85
2024/02/19 01:58:00;;;;;;;2.07;1.87;;;8.00;99.90;;;;;;5059625;28;20276;-87
2024/02/19 02:00:28;;;;;;;6.30;1.80;;;8.00;99.90;;;;;;5046960;28;20223;-86
2024/02/19 02:02:54;;;;;;;1.17;1.07;;;8.00;99.90;;;;;;5050978;28;20213;-85
2024/02/19 02:05:20;;;;;;;1.20;1.00;;;7.90;99.90;;;;;;5060605;28;20205;-86
2024/02/19 02:07:46;;;;;;;1.07;0.97;;;7.90;99.90;;;;;;5060848;28;20181;-86
2024/02/19 02:10:12;;;;;;;0.80;0.80;;;7.90;99.90;;;;;;5052424;28;20531;-87
2024/02/19 02:12:38;;;;;;;1.20;1.10;;;7.80;99.90;;;;;;5044064;28;20227;-87
2024/02/19 02:15:05;;;;;;;2.40;1.10;;;7.80;99.90;;;;;;5038490;28;20177;-86
2024/02/19 02:17:31;;;;;;;1.97;1.17;;;7.80;99.90;;;;;;5059502;28;20523;-87
2024/02/19 02:19:56;;;;;;;1.63;1.17;;;7.80;99.90;;;;;;5078338;28;20189;-86
2024/02/19 02:22:22;;;;;;;2.13;1.60;;;7.80;99.90;;;;;;5072409;28;20188;-85
2024/02/19 02:24:48;;;;;;;1.90;1.57;;;7.70;99.90;;;;;;5073296;28;20185;-87
2024/02/19 02:27:14;;;;;;;1.97;1.60;;;7.70;99.90;;;;;;5062818;28;20629;-87
2024/02/19 02:29:42;;;;;;;2.00;1.80;;;7.70;99.90;;;;;;5053558;28;20192;-86
2024/02/19 02:32:07;;;;;;;2.53;1.70;;;7.70;99.90;;;;;;5043752;28;20209;-87
2024/02/19 02:34:34;;;;;;;2.73;1.80;;;7.70;99.90;;;;;;5048609;28;20263;-87
2024/02/19 02:37:02;;;;;;;2.33;1.97;;;7.70;99.90;;;;;;5040226;28;20272;-86
2024/02/19 02:39:30;;;;;;;3.77;1.90;;;7.60;99.90;;;;;;5049093;28;20193;-87
2024/02/19 02:41:56;;;;;;;3.10;1.90;;;7.60;99.90;;;;;;5073120;28;20188;-87
2024/02/19 02:44:22;;;;;;;2.30;1.97;;;7.70;99.90;;;;;;5042015;28;20183;-86
2024/02/19 02:46:47;;;;;;;2.73;2.10;;;7.70;99.90;;;;;;5051181;28;20291;-87
2024/02/19 02:49:13;;;;;;;1.90;1.70;;;7.70;99.90;;;;;;5059935;28;20232;-86
2024/02/19 02:51:41;;;;;;;2.23;2.03;;;7.70;99.90;;;;;;5068931;28;20231;-86
2024/02/19 02:54:06;;;;;;;1.80;1.70;;;7.80;99.90;;;;;;5059846;28;20217;-87
2024/02/19 02:56:32;;;;;;;1.10;1.00;;;7.80;99.90;;;;;;5057427;28;20218;-85
2024/02/19 02:58:58;;;;;;;1.10;1.00;;;7.90;99.90;;;;;;5039789;28;20196;-85
2024/02/19 03:01:32;;;;;;;2.07;0.90;;;7.90;99.90;;;;;;5047922;28;20212;-86
2024/02/19 03:03:58;;;;;;;0.50;0.50;;;7.80;99.90;;;;;;5057745;28;20263;-85
2024/02/19 03:06:24;;;;;;;0.60;0.53;;;7.80;99.90;;;;;;5059635;28;20312;-87
2024/02/19 03:08:50;;;;;;;0.43;0.40;;;7.70;99.90;;;;;;5072722;28;20181;-86
2024/02/19 03:11:26;;;;;;;0.40;0.40;;;7.70;99.90;;;;;;5055560;28;20185;-87
2024/02/19 03:16:35;;;;;;;2.63;0.50;;;7.60;99.90;;;;;;5276461;22;20247;-84
2024/02/19 03:19:05;;;;;;;0.63;0.60;;;7.60;99.90;;;;;;5057275;28;20186;-84
2024/02/19 03:21:31;;;;;;;0.30;0.30;;;7.60;99.90;;;;;;5055828;28;20604;-85
2024/02/19 03:23:57;;;;;;;0.20;0.20;;;7.60;99.90;;;;;;5056155;28;20212;-87
2024/02/19 03:26:24;;;;;;;0.30;0.30;;;7.50;99.90;;;;;;5055896;28;20640;-86
2024/02/19 03:28:50;;;;;;;0.20;0.20;;;7.50;99.90;;;;;;5069352;28;20264;-86
2024/02/19 03:31:16;;;;;;;0.53;0.30;;;7.50;99.90;;;;;;5075027;28;20676;-86
2024/02/19 03:33:42;;;;;;;1.17;0.53;;;7.40;99.90;;;;;;5055905;28;20182;-86
2024/02/19 03:36:11;;;;;;;0.20;0.20;;;7.40;99.90;;;;;;5055207;28;20281;-84
2024/02/19 03:38:37;;;;;;;1.27;0.40;;;7.30;99.90;;;;;;5075872;28;20181;-88
2024/02/19 03:41:10;;;;;;;0.60;0.27;;;7.30;99.90;;;;;;5068934;28;20620;-87
2024/02/19 03:43:36;;;;;;;0.60;0.40;;;7.30;99.90;;;;;;5075534;28;20272;-87
2024/02/19 03:46:08;;;;;;;1.50;0.33;;;7.20;99.90;;;;;;5070326;28;20628;-88
2024/02/19 03:48:34;;;;;;;1.40;0.47;;;7.20;99.90;;;;;;5069706;28;20642;-90
2024/02/19 03:51:00;;;;;;;1.53;0.60;;;7.20;99.90;;;;;;5075572;28;20200;-88
2024/02/19 03:53:26;;;;;;;2.03;0.50;;;7.30;99.90;;;;;;5064812;28;20195;-87
2024/02/19 03:55:51;;;;;;;1.27;0.30;;;7.20;99.90;;;;;;5060703;28;20188;-86
2024/02/19 03:58:28;;;;;;;0.50;0.50;;;7.20;99.90;;;;;;5072782;28;20181;-86
2024/02/19 04:00:54;;;;;;;1.60;0.40;;;7.20;99.90;;;;;;5075074;28;20234;-85
2024/02/19 04:03:20;;;;;;;1.17;0.60;;;7.20;99.90;;;;;;5066872;28;20188;-89
2024/02/19 04:05:46;;;;;;;1.77;0.40;;;7.20;99.90;;;;;;5075253;28;20211;-86
2024/02/19 04:08:12;;;;;;;2.07;0.53;;;7.10;99.90;;;;;;5070020;28;20186;-86
2024/02/19 04:10:39;;;;;;;1.27;0.50;;;7.10;99.90;;;;;;5059599;28;20189;-89
2024/02/19 04:13:04;;;;;;;1.50;0.60;;;7.10;99.90;;;;;;5076090;28;20180;-89
2024/02/19 04:15:30;;;;;;;1.77;0.60;;;7.10;99.90;;;;;;5063918;28;20234;-87
2024/02/19 04:17:56;;;;;;;3.67;0.70;;;7.10;99.90;;;;;;5067012;28;20181;-88
2024/02/19 04:20:22;;;;;;;2.00;0.50;;;7.10;99.90;;;;;;5075402;28;20191;-90
2024/02/19 04:22:47;;;;;;;1.90;0.77;;;7.10;99.90;;;;;;5074671;28;20185;-87
2024/02/19 04:25:14;;;;;;;2.27;0.83;;;7.10;99.90;;;;;;5073912;28;20205;-87
2024/02/19 04:27:44;;;;;;;2.67;0.70;;;7.00;99.90;;;;;;5068201;28;20288;-88
2024/02/19 04:30:10;;;;;;;2.27;0.60;;;7.00;99.90;;;;;;5066872;28;20186;-87
2024/02/19 04:32:36;;;;;;;2.83;0.93;;;7.00;99.90;;;;;;5074651;28;20189;-89
2024/02/19 04:35:02;;;;;;;2.57;1.00;;;7.00;99.90;;;;;;5075307;28;20188;-90
2024/02/19 04:37:30;;;;;;;1.40;0.70;;;7.00;99.90;;;;;;5067386;28;20185;-87
2024/02/19 04:39:55;;;;;;;2.63;0.60;;;6.90;99.90;;;;;;5059937;28;20215;-87
2024/02/19 04:42:21;;;;;;;1.10;0.67;;;6.90;99.90;;;;;;5070898;28;20188;-85
2024/02/19 04:44:47;;;;;;;3.00;0.77;;;6.90;99.90;;;;;;5073198;28;20236;-85
2024/02/19 04:47:20;;;;;;;2.60;0.60;;;6.90;99.90;;;;;;5062352;28;20564;-86
2024/02/19 04:49:47;;;;;;;2.17;0.70;;;6.90;99.90;;;;;;5074458;28;20181;-87
2024/02/19 04:52:13;;;;;;;2.93;0.80;;;6.90;99.90;;;;;;5063357;28;20181;-88
2024/02/19 04:54:39;;;;;;;1.90;0.53;;;6.90;99.90;;;;;;5074275;28;20181;-86
2024/02/19 04:57:05;;;;;;;2.00;0.40;;;6.90;99.90;;;;;;5085626;28;20177;-86
2024/02/19 04:59:31;;;;;;;1.13;0.30;;;6.90;99.90;;;;;;5074481;28;20188;-92
2024/02/19 05:01:57;;;;;;;1.87;0.50;;;6.80;99.90;;;;;;5059810;28;20199;-90
2024/02/19 05:04:24;;;;;;;1.43;0.40;;;6.90;99.90;;;;;;5073186;28;20181;-89
2024/02/19 05:06:50;;;;;;;1.47;0.50;;;6.90;99.90;;;;;;5051325;28;20219;-89
2024/02/19 05:09:15;;;;;;;2.73;0.60;;;6.80;99.90;;;;;;5063828;28;20177;-87
2024/02/19 05:11:41;;;;;;;1.40;0.40;;;6.80;99.90;;;;;;5069829;28;20219;-86
2024/02/19 05:14:07;;;;;;;1.70;0.33;;;6.80;99.90;;;;;;5074176;28;20199;-88
2024/02/19 05:16:33;;;;;;;1.20;0.30;;;6.80;99.90;;;;;;5066099;28;20349;-89
2024/02/19 05:19:00;;;;;;;1.57;0.40;;;6.80;99.90;;;;;;5045415;28;20204;-89
2024/02/19 05:21:26;;;;;;;2.20;0.57;;;6.80;99.90;;;;;;5055370;28;20181;-89
2024/02/19 05:23:51;;;;;;;0.47;0.20;;;6.80;99.90;;;;;;5073893;28;20177;-87
2024/02/19 05:26:27;;;;;;;0.20;0.20;;;6.80;99.90;;;;;;5072458;28;20235;-89
2024/02/19 05:28:55;;;;;;;0.33;0.20;;;6.80;99.90;;;;;;5059071;28;20196;-88
2024/02/19 05:31:41;;;;;;;0.70;0.20;;;6.80;99.90;;;;;;5073805;28;20224;-87
2024/02/19 05:34:08;;;;;;;1.50;0.30;;;6.70;99.90;;;;;;5069351;28;20176;-89
2024/02/19 05:36:34;;;;;;;0.83;0.20;;;6.80;99.90;;;;;;5060520;28;20611;-90
2024/02/19 05:39:03;;;;;;;2.40;0.30;;;6.80;99.90;;;;;;5065736;28;20189;-91
2024/02/19 05:41:29;;;;;;;0.60;0.30;;;6.70;99.90;;;;;;5073779;28;20271;-90
2024/02/19 05:43:56;;;;;;;2.83;0.33;;;6.80;99.90;;;;;;5068380;28;20591;-90
2024/02/19 05:46:22;;;;;;;0.27;0.27;;;6.80;99.90;;;;;;5046620;28;20301;-90
2024/02/19 05:48:55;;;;;;;0.83;0.33;;;6.80;99.90;;;;;;5061357;28;20983;-88
2024/02/19 05:51:22;;;;;;;0.43;0.43;;;6.80;99.90;;;;;;5066704;28;20247;-90
2024/02/19 05:53:49;;;;;;;1.63;0.33;;;6.80;99.90;;;;;;5073794;28;20182;-91
2024/02/19 05:56:14;;;;;;;0.50;0.30;;;6.80;99.90;;;;;;5069104;28;20318;-91
2024/02/19 05:58:41;;;;;;;0.87;0.40;;;6.80;99.90;;;;;;5066480;28;20228;-89
2024/02/19 06:01:08;;;;;;;1.10;0.40;;;6.90;99.90;;;;;;5061029;28;20201;-89
2024/02/19 06:03:34;;;;;;;1.13;0.40;;;6.80;99.90;;;;;;5061311;28;20617;-90
2024/02/19 06:06:00;;;;;;;1.17;0.50;;;6.80;99.90;;;;;;5061191;28;20682;-90
2024/02/19 06:08:28;;;;;;;0.60;0.40;;;6.80;99.90;;;;;;5071168;28;20178;-91
2024/02/19 06:10:55;;;;;;;0.70;0.50;;;6.80;99.90;;;;;;5063368;28;20186;-90
2024/02/19 06:13:21;;;;;;;1.27;0.50;;;6.80;99.90;;;;;;5053491;28;20182;-88
2024/02/19 06:15:47;;;;;;;3.20;0.90;;;6.80;99.90;;;;;;5057650;28;20710;-89
2024/02/19 06:18:14;;;;;;;2.20;0.70;;;6.80;99.90;;;;;;5074602;28;20232;-89
2024/02/19 06:20:39;;;;;;;2.37;0.60;;;6.80;99.90;;;;;;5073385;28;20189;-90
2024/02/19 06:23:05;;;;;;;2.60;0.60;;;6.80;99.90;;;;;;5073519;28;20200;-88
2024/02/19 06:25:32;;;;;;;1.27;0.53;;;6.90;99.90;;;;;;5037760;28;20209;-89
2024/02/19 06:28:02;;;;;;;1.30;0.40;;;6.90;99.90;;;;;;5055331;28;20174;-88
2024/02/19 06:30:28;;;;;;;1.87;0.37;;;6.90;99.90;;;;;;5065997;28;20173;-88
2024/02/19 06:32:53;;;;;;;0.57;0.30;;;6.90;99.90;;;;;;5070705;28;20191;-90
2024/02/19 06:35:31;;;;;;;0.73;0.43;;;7.00;99.90;;;;;;5073190;28;20660;-89
2024/02/19 06:38:00;;;;;;;0.80;0.40;;;7.00;99.90;;;;;;5059880;28;20173;-89
2024/02/19 06:40:26;;;;;;;1.73;0.53;;;7.00;99.90;;;;;;5055378;28;20198;-87
2024/02/19 06:42:52;;;;;;;0.80;0.63;;;7.00;99.90;;;;;;5073009;28;20520;-90
2024/02/19 06:45:19;;;;;;;0.70;0.60;;;7.00;99.90;;;;;;5068224;28;20316;-91
2024/02/19 06:47:45;;;;;;;1.60;0.50;;;7.00;99.90;;;;;;5073030;28;20217;-91
2024/02/19 06:50:19;;;;;;;0.93;0.50;;;7.00;99.90;;;;;;5073100;28;20211;-89
2024/02/19 06:52:47;;;;;;;3.97;0.70;;;7.00;99.90;;;;;;5061801;28;20193;-91
2024/02/19 06:55:15;;;;;;;1.10;0.87;;;7.10;99.90;;;;;;5093358;28;20189;-90
2024/02/19 06:57:41;;;;;;;2.13;0.60;;;7.00;99.90;;;;;;5093537;28;20193;-90
2024/02/19 07:00:09;;;;;;;0.50;0.40;;;7.10;99.90;;;;;;5085170;28;20197;-90
2024/02/19 07:02:35;;;;;;;0.97;0.40;;;7.10;99.90;;;;;;5056563;28;20190;-90
2024/02/19 07:05:01;;;;;;;0.83;0.43;;;7.10;99.90;;;;;;5056389;28;20269;-91
2024/02/19 07:07:26;;;;;;;1.07;0.67;;;7.00;99.90;;;;;;5070606;28;20178;-91
2024/02/19 07:10:00;;;;;;;1.90;0.50;;;7.00;99.90;;;;;;5062653;28;20192;-90
2024/02/19 07:12:26;;;;;;;1.43;0.60;;;7.00;99.90;;;;;;5076250;28;20239;-91
2024/02/19 07:14:52;;;;;;;0.70;0.70;;;7.00;99.90;;;;;;5073587;28;20524;-90
2024/02/19 07:17:18;;;;;;;1.13;0.77;;;7.00;99.90;;;;;;5064151;28;20186;-90
2024/02/19 07:19:44;;;;;;;1.20;0.93;;;7.00;99.90;;;;;;5059174;28;20177;-92
2024/02/19 07:22:10;;;;;;;1.63;0.70;;;7.00;99.90;;;;;;5048342;28;20217;-91
2024/02/19 07:24:38;;;;;;;1.07;0.87;;;7.00;99.90;;;;;;5056263;28;20181;-90
2024/02/19 07:27:05;;;;;;;1.03;0.90;;;7.00;99.90;;;;;;5062008;28;20647;-91
2024/02/19 07:29:34;;;;;;;0.60;0.60;;;7.00;99.90;;;;;;5067068;28;20208;-91
2024/02/19 07:32:00;;;;;;;1.10;0.80;;;7.00;99.90;;;;;;5066461;28;20239;-90
2024/02/19 07:34:26;;;;;;;2.07;0.67;;;7.00;99.90;;;;;;5075838;28;20181;-92
2024/02/19 07:36:52;;;;;;;1.60;0.50;;;7.10;99.90;;;;;;5068505;28;20268;-91
2024/02/19 07:39:27;;;;;;;1.70;0.73;;;7.00;99.90;;;;;;5072654;28;20196;-91
2024/02/19 07:41:53;;;;;;;0.73;0.60;;;7.10;99.90;;;;;;5067502;28;20522;-90
2024/02/19 07:44:19;;;;;;;1.73;0.60;;;7.10;99.90;;;;;;5067199;28;20192;-91
2024/02/19 07:46:44;;;;;;;0.70;0.50;;;7.10;99.90;;;;;;5056640;28;20248;-90
2024/02/19 07:49:12;;;;;;;1.23;0.67;;;7.20;99.90;;;;;;5050400;28;20193;-91
2024/02/19 07:51:38;;;;;;;0.67;0.60;;;7.10;99.90;;;;;;5064628;28;20182;-91
2024/02/19 07:54:04;;;;;;;0.83;0.70;;;7.10;99.90;;;;;;5055585;28;20643;-91
2024/02/19 07:56:30;;;;;;;1.63;0.53;;;7.10;99.90;;;;;;5068075;28;20178;-91
2024/02/19 07:59:02;;;;;;;1.60;0.60;;;7.30;99.90;;;;;;5067876;28;20181;-92
2024/02/19 08:01:28;;;;;;;3.00;0.80;;;7.30;99.90;;;;;;5056806;28;20695;-91
2024/02/19 08:03:54;;;;;;;0.60;0.60;;;7.40;99.90;;;;;;5067174;28;20189;-89
2024/02/19 08:06:19;;;;;;;1.00;0.80;;;7.40;99.90;;;;;;5074999;28;20209;-91
2024/02/19 08:08:45;;;;;;;2.40;0.90;;;7.40;99.90;;;;;;5064875;28;20178;-90
2024/02/19 08:11:11;;;;;;;0.90;0.80;;;7.40;99.90;;;;;;5066732;28;20186;-87
2024/02/19 08:13:36;;;;;;;1.30;1.00;;;7.40;99.90;;;;;;5074722;28;20539;-92
2024/02/19 08:16:02;;;;;;;2.60;0.80;;;7.40;99.90;;;;;;5064769;28;20217;-91
2024/02/19 08:18:28;;;;;;;2.00;0.90;;;7.50;99.90;;;;;;5059824;28;20177;-90
2024/02/19 08:20:57;;;;;;;1.27;1.00;;;7.50;99.90;;;;;;5062973;28;20196;-90
2024/02/19 08:23:23;;;;;;;1.27;0.90;;;7.40;99.90;;;;;;5063956;28;20324;-90
2024/02/19 08:25:48;;;;;;;2.47;1.07;;;7.50;99.90;;;;;;5061991;28;20302;-91
2024/02/19 08:28:14;;;;;;;2.60;1.33;;;7.50;99.90;;;;;;5074590;28;20223;-89
2024/02/19 08:30:40;;;;;;;1.13;0.97;;;7.40;99.90;;;;;;5064433;28;20225;-92
2024/02/19 08:33:09;;;;;;;2.20;1.50;;;7.40;99.90;;;;;;5071005;28;20243;-91
2024/02/19 08:35:34;;;;;;;2.47;1.50;;;7.50;99.90;;;;;;5086876;28;20184;-89
2024/02/19 08:38:00;;;;;;;1.10;0.97;;;7.50;99.90;;;;;;5071913;28;20250;-91
2024/02/19 08:40:27;;;;;;;3.80;2.87;;;7.50;99.90;;;;;;5076125;28;20180;-88
2024/02/19 08:42:53;;;;;;;2.30;1.30;;;7.50;99.90;;;;;;5069599;28;20188;-88
2024/02/19 08:45:19;;;;;;;4.27;2.97;;;7.50;99.90;;;;;;5072901;28;20209;-91
2024/02/19 08:47:45;;;;;;;4.53;2.40;;;7.60;99.90;;;;;;5072684;28;20567;-91
2024/02/19 08:50:13;;;;;;;4.30;2.97;;;7.60;99.90;;;;;;5056925;28;20231;-92
2024/02/19 08:52:39;;;;;;;4.83;2.10;;;7.60;99.90;;;;;;5070501;28;20184;-90
2024/02/19 08:55:05;;;;;;;2.53;2.07;;;7.70;99.90;;;;;;5095901;28;20192;-92
2024/02/19 08:57:30;;;;;;;2.97;2.20;;;7.70;99.90;;;;;;5075102;28;20228;-90
2024/02/19 08:59:56;;;;;;;2.90;2.10;;;7.70;99.90;;;;;;5070957;28;20192;-91
2024/02/19 09:02:22;;;;;;;4.67;3.53;;;7.70;99.90;;;;;;5073346;28;20211;-90
2024/02/19 09:04:48;;;;;;;3.00;2.10;;;7.70;99.90;;;;;;5077028;28;20271;-89
2024/02/19 09:07:14;;;;;;;1.70;1.30;;;7.70;99.90;;;;;;5091009;28;20270;-90
2024/02/19 09:09:44;;;;;;;3.43;1.90;;;7.70;99.90;;;;;;5058524;28;20195;-89
2024/02/19 09:12:11;;;;;;;4.20;2.90;;;7.70;99.90;;;;;;5077939;28;20204;-91
2024/02/19 09:14:37;;;;;;;3.10;2.17;;;7.90;99.90;;;;;;5058579;28;20185;-90
2024/02/19 09:17:03;;;;;;;6.57;4.10;;;7.80;99.90;;;;;;5060411;28;20631;-91
2024/02/19 09:19:31;;;;;;;6.03;3.67;;;7.80;99.90;;;;;;5072050;28;20276;-90
2024/02/19 09:22:04;;;;;;;5.73;3.33;;;7.80;99.90;;;;;;5058093;28;20185;-89
2024/02/19 09:24:31;;;;;;;3.80;2.53;;;7.90;99.90;;;;;;5065379;28;20196;-88
2024/02/19 09:26:57;;;;;;;1.73;1.10;;;7.90;99.90;;;;;;5071019;28;20209;-90
2024/02/19 09:29:23;;;;;;;1.70;1.60;;;8.00;99.90;;;;;;5056813;28;20193;-89
2024/02/19 09:31:53;;;;;;;2.50;1.50;;;8.00;99.90;;;;;;5066020;28;20212;-89
2024/02/19 09:34:19;;;;;;;2.93;2.17;;;8.00;99.90;;;;;;5063103;28;20189;-90
2024/02/19 09:36:45;;;;;;;2.20;1.97;;;8.00;99.90;;;;;;5065479;28;20243;-89
2024/02/19 09:39:12;;;;;;;2.13;1.40;;;8.10;99.90;;;;;;5069223;28;20201;-90
2024/02/19 09:41:44;;;;;;;2.47;1.53;;;8.00;99.90;;;;;;5065363;28;20213;-90
2024/02/19 09:44:10;;;;;;;3.10;1.80;;;8.10;99.90;;;;;;5054917;28;20185;-89
2024/02/19 09:46:37;;;;;;;1.87;1.47;;;8.10;99.90;;;;;;5058457;28;20267;-89
2024/02/19 09:49:04;;;;;;;6.33;1.57;;;8.10;99.90;;;;;;5070271;28;20236;-91
2024/02/19 09:51:37;;;;;;;2.53;1.70;;;8.10;99.90;;;;;;5065277;28;20271;-88
2024/02/19 09:54:05;;;;;;;3.27;1.77;;;8.10;99.90;;;;;;5065764;28;20237;-87
2024/02/19 09:56:34;;;;;;;2.20;1.40;;;8.10;99.90;;;;;;5073629;28;20532;-89
2024/02/19 09:58:59;;;;;;;2.17;1.57;;;8.20;99.90;;;;;;5073622;28;20181;-89
2024/02/19 10:01:31;;;;;;;5.20;1.40;;;8.20;99.90;;;;;;5062246;28;20246;-90
2024/02/19 10:03:57;;;;;;;2.13;1.80;;;8.20;99.90;;;;;;5063691;28;20182;-89
2024/02/19 10:06:32;;;;;;;2.43;1.80;;;8.30;99.90;;;;;;5070946;28;20213;-90
2024/02/19 10:09:00;;;;;;;2.83;2.20;;;8.30;99.90;;;;;;5067707;28;20182;-91
2024/02/19 10:11:26;;;;;;;4.90;1.80;;;8.30;99.90;;;;;;5063524;28;20196;-91
2024/02/19 10:13:52;;;;;;;3.27;1.90;;;8.40;99.90;;;;;;5059359;28;20181;-90
2024/02/19 10:16:18;;;;;;;1.77;1.30;;;8.30;99.90;;;;;;5058352;28;20244;-92
2024/02/19 10:18:44;;;;;;;4.30;1.43;;;8.30;99.90;;;;;;5073403;28;20224;-91
2024/02/19 10:21:10;;;;;;;1.43;1.30;;;8.30;99.90;;;;;;5063936;28;20541;-91
2024/02/19 10:23:36;;;;;;;2.37;1.20;;;8.30;99.90;;;;;;5073188;28;20195;-90
2024/02/19 10:26:03;;;;;;;2.03;1.33;;;8.40;99.90;;;;;;5070358;28;20633;-92
2024/02/19 10:28:31;;;;;;;2.03;1.37;;;8.40;99.90;;;;;;5075530;28;20185;-90
2024/02/19 10:31:01;;;;;;;1.47;1.20;;;8.40;99.90;;;;;;5068708;28;20283;-92
2024/02/19 10:33:27;;;;;;;2.73;1.07;;;8.50;99.90;;;;;;5068560;28;20244;-91
2024/02/19 10:35:53;;;;;;;2.50;1.20;;;8.50;99.90;;;;;;5076700;28;20788;-88
2024/02/19 10:38:19;;;;;;;2.43;1.23;;;8.50;99.90;;;;;;5076666;28;20276;-89
2024/02/19 10:40:51;;;;;;;1.30;0.83;;;8.50;99.90;;;;;;5065653;28;20268;-90
2024/02/19 10:43:17;;;;;;;1.10;1.00;;;8.60;99.90;;;;;;5066720;28;20178;-91
2024/02/19 10:45:43;;;;;;;2.93;1.33;;;8.60;99.90;;;;;;5069694;28;20541;-92
2024/02/19 10:48:09;;;;;;;2.67;1.10;;;8.70;99.90;;;;;;5071266;28;20188;-92
2024/02/19 10:50:36;;;;;;;3.05;1.10;;;8.80;99.90;;;;;;5061282;28;20192;-91
2024/02/19 10:53:05;;;;;;;1.20;0.90;;;8.80;99.90;;;;;;5061090;28;20185;-92
2024/02/19 10:55:34;;;;;;;2.17;1.17;;;8.80;99.90;;;;;;5075302;28;20192;-89
2024/02/19 10:58:00;;;;;;;3.17;1.40;;;8.80;99.90;;;;;;5077718;28;20192;-90
2024/02/19 11:00:27;;;;;;;2.53;1.10;;;8.80;99.90;;;;;;5076486;28;20185;-90
2024/02/19 11:03:09;;;;;;;2.60;1.20;;;8.90;99.90;;;;;;5064554;28;20178;-89
2024/02/19 11:05:43;;;;;;;2.00;1.38;;;9.00;99.90;;;;;;5075403;28;20663;-91
2024/02/19 11:08:21;;;;;;;2.13;1.00;;;9.10;99.90;;;;;;5060804;28;20194;-91
2024/02/19 11:10:48;;;;;;;4.47;1.30;;;9.20;99.90;;;;;;5057271;28;20188;-89
2024/02/19 11:13:19;;;;;;;2.83;1.05;;;9.20;99.90;;;;;;5060398;28;20244;-90
2024/02/19 11:15:46;;;;;;;3.42;1.30;;;9.40;99.90;;;;;;5081135;28;20267;-90
2024/02/19 11:18:16;;;;;;;1.38;0.85;;;9.50;99.90;;;;;;5071260;28;20197;-91
2024/02/19 11:20:43;;;;;;;5.05;1.10;;;9.40;99.90;;;;;;5058886;28;20181;-91
2024/02/19 11:23:17;;;;;;;1.33;0.80;;;9.40;99.90;;;;;;5060040;28;20185;-91
2024/02/19 11:25:46;;;;;;;2.80;0.90;;;9.40;99.90;;;;;;5067320;28;20247;-92
2024/02/19 11:28:12;;;;;;;2.58;1.30;;;9.40;99.90;;;;;;5077168;28;20181;-92
2024/02/19 11:30:38;;;;;;;4.00;1.13;;;9.50;99.90;;;;;;5075571;28;20272;-89
2024/02/19 11:33:06;;;;;;;5.93;1.27;;;9.50;99.90;;;;;;5076725;28;20206;-90
2024/02/19 11:35:36;;;;;;;4.90;1.00;;;9.60;99.90;;;;;;5095556;28;20169;-90
2024/02/19 11:38:02;;;;;;;4.63;1.17;;;9.70;99.90;;;;;;5090736;28;20173;-91
2024/02/19 11:40:31;;;;;;;3.28;1.20;;;9.70;99.90;;;;;;5086763;28;20518;-90
2024/02/19 11:43:01;;;;;;;2.35;0.90;;;9.60;99.90;;;;;;5079056;28;20195;-89
2024/02/19 11:45:30;;;;;;;5.85;1.23;;;9.70;99.90;;;;;;5093877;28;20209;-91
2024/02/19 11:47:57;;;;;;;3.40;1.10;;;9.70;99.90;;;;;;5091377;28;20196;-91
2024/02/19 11:50:31;;;;;;;4.03;0.90;;;9.70;99.90;;;;;;5094571;28;20179;-90
2024/02/19 11:53:00;;;;;;;5.43;1.52;;;9.70;99.90;;;;;;5087095;28;20188;-92
2024/02/19 11:55:29;;;;;;;5.38;1.52;;;9.80;99.90;;;;;;5093611;28;20180;-90
2024/02/19 11:58:17;;;;;;;10.07;1.65;;;9.90;99.90;;;;;;5068237;28;20481;-91
2024/02/19 12:00:47;;;;;;;4.78;1.20;;;9.90;99.90;;;;;;5080905;28;20187;-92
2024/02/19 12:03:13;;;;;;;5.95;1.23;;;9.80;99.90;;;;;;5096893;28;20185;-91
2024/02/19 12:05:41;;;;;;;7.78;1.58;;;9.80;99.90;;;;;;5066437;28;20204;-90
2024/02/19 12:08:08;;;;;;;5.03;1.20;;;9.90;99.90;;;;;;5065577;28;20185;-91
2024/02/19 12:10:35;;;;;;;7.60;1.58;;;9.90;99.90;;;;;;5095082;28;20648;-91
2024/02/19 12:13:06;;;;;;;7.93;1.63;;;9.90;99.90;;;;;;5092261;28;20181;-90
2024/02/19 12:15:32;;;;;;;6.72;1.45;;;9.90;99.90;;;;;;5091459;28;20232;-90
2024/02/19 12:17:58;;;;;;;4.22;1.40;;;9.90;99.90;;;;;;5072522;28;20180;-91
2024/02/19 12:20:23;;;;;;;4.95;1.50;;;9.90;99.90;;;;;;5096113;28;20684;-90
2024/02/19 12:22:51;;;;;;;6.75;1.60;;;9.90;99.90;;;;;;5064733;28;20182;-91
2024/02/19 12:25:17;;;;;;;9.38;1.67;;;9.90;99.90;;;;;;5083947;28;20230;-91
2024/02/19 12:27:43;;;;;;;6.83;1.60;;;9.90;99.90;;;;;;5066254;28;20181;-92
2024/02/19 12:30:09;;;;;;;6.50;1.80;;;9.80;99.90;;;;;;5095806;28;20184;-91
2024/02/19 12:32:36;;;;;;;4.45;1.90;;;9.80;99.90;;;;;;5084442;28;20268;-91
2024/02/19 12:35:02;;;;;;;8.75;1.60;;;10.00;99.90;;;;;;5080673;28;20260;-91
2024/02/19 12:37:31;;;;;;;7.38;1.92;;;10.20;99.90;;;;;;5071930;28;20270;-91
2024/02/19 12:39:58;;;;;;;6.25;1.20;;;10.40;99.90;;;;;;5082040;28;20238;-91
2024/02/19 12:42:24;;;;;;;6.57;1.80;;;10.50;99.90;;;;;;5086789;28;20610;-90
2024/02/19 12:44:50;;;;;;;8.50;1.73;;;10.70;99.90;;;;;;5075075;28;20185;-92
2024/02/19 12:47:16;;;;;;;5.43;1.05;;;10.70;99.90;;;;;;5056700;28;20209;-89
2024/02/19 12:49:41;;;;;;;4.75;1.65;;;10.60;99.90;;;;;;5049791;28;20287;-90
2024/02/19 12:52:08;;;;;;;7.10;1.60;;;10.50;99.90;;;;;;5057611;28;20627;-90
2024/02/19 12:54:41;;;;;;;4.95;1.42;;;10.60;99.90;;;;;;5057231;28;20234;-90
2024/02/19 12:57:08;;;;;;;4.55;1.30;;;10.40;99.90;;;;;;5057747;28;20243;-92
2024/02/19 12:59:34;;;;;;;10.32;1.50;;;10.40;99.90;;;;;;5064986;28;20627;-88